UKLLUKKK

Guest
Details From UKLL - Lviv Intl
To UKKK - Zhuliany Intl
Flight Number -
Tags Generated
Created
Modified
Stats Distance 252 nm / 467 km
Max Altitude 0 ft / 0 m
Waypoints 3
Social Downloads 2
Likes 0
Share VATSIM

Download

Looking for another format? Having issues loading an existing format? Contact us
Advertisement - Login to hide

Notes

Generated

Route

UKLL I UKKK

ID Type Via Altitude Latitude Longitude Leg Dist Tot Dist Heading (true) Name
O UKLL APT - 0 ft / 0 m 49.82083˚ 23.94389˚ - 0 nm - -
I NDB - 0 ft / 0 m 50.40032˚ 30.41906˚ 251 nm 251 nm 80° / 85° ZHULIANY NDB
O UKKK APT - 0 ft / 0 m 50.40113˚ 30.43699˚ 0 nm 252 nm 86° / 86° -

Altitude Profile

Advertisement - Login to hide

Weather


0- 5 10 15 20 25 30 35+ Temperature / ° C

Clouds and Precipitation
Forecast for 2017-12-13 06:00 UTC. Updated 4 minutes ago

Ground ~20,000 ft ~40,000 ft Winds

UKLL

Details ICAO UKLL (LWO)
Name LVIV INTL
Region Ukraine
Timezone Europe/Kiev (UTC+2.0)
Stats Elevation 1,071 ft / 326 m (AMSL)
Location 49.812638° 23.956111°
Runways 1
Magnetic Variation 6.099° E

METAR

UKLL 130500Z VRB01MPS 1700 SHRASN BKN004 BKN020CB 00/M01 Q1016 R31/690339 TEMPO 0800 +SHRASN BKN004 BKN015CB

Decode

TAF

TAF UKLL 122312Z 1300/1324 27003MPS 2100 BR SCT004 BKN007 TEMPO 1300/1315 30005MPS 0600 +SHRASN BKN003 BKN015CB BECMG 1315/1317 VRB02MPS TEMPO 1317/1324 0400 -SHSN FZFG BKN002 BKN015CB TX03/1300Z TNM02/1324Z

Decode

Departure Runways

ID Width Length Bearing (true) Bearing (mag) Surface Threshold Offset Overrun Length
13 148 ft / 45 m 8,300 ft / 2,530 m 136.09° 129.99° Asphalt 0 ft / 0 m 160 ft / 49 m
31 148 ft / 45 m 8,300 ft / 2,530 m 316.11° 310.01° Asphalt 0 ft / 0 m 145 ft / 44 m

UKKK

Details ICAO UKKK (IEV)
Name ZHULIANY INTL
Region Ukraine
Timezone Europe/Kiev (UTC+2.0)
Stats Elevation 586 ft / 179 m (AMSL)
Location 50.401694° 30.449697°
Runways 1
Magnetic Variation 7.597° E

METAR

UKKK 130500Z 24002MPS 8000 NSC 01/00 Q1012 R26/810250 NOSIG

Decode

TAF

TAF TAF UKKK 122303Z 1300/1324 25003G08MPS 6000 BKN010 TEMPO 1300/1307 1000 BR OVC002 BECMG 1307/1309 33005G10MPS TEMPO 1309/1320 34008G13MPS 2100 -SHRA BKN005 SCT012CB TEMPO 1320/1324 1000 BR BKN003 TX04/1300Z TN00/1324Z

Decode

Destination Runways

ID Width Length Bearing (true) Bearing (mag) Surface Threshold Offset Overrun Length
08 161 ft / 49 m 5,926 ft / 1,806 m 86.02° 78.42° Concrete 0 ft / 0 m 0 ft / 0 m
26 161 ft / 49 m 5,926 ft / 1,806 m 266.04° 258.44° Concrete 0 ft / 0 m 1,132 ft / 345 m

Approach Navaids

Runway Type Ident Frequency Range Bearing (true) Bearing (mag) Slope Elevation
08 Localiser IKI 111.70 MHz 18 nm / 33 km 86.26° 78.66° - 586 ft / 179 m (AMSL)
08 Glidescope IKI 111.70 MHz 10 nm / 19 km 86.03° 78.43° 3.00° 586 ft / 179 m (AMSL)
26 Localiser IKV 108.30 MHz 18 nm / 33 km 266.67° 259.08° - 586 ft / 179 m (AMSL)
26 Glidescope IKV 108.30 MHz 10 nm / 19 km 266.03° 258.43° 3.00° 586 ft / 179 m (AMSL)

Popular Alternatives